sensor_id;sensor_type;location;lat;lon;timestamp;temperature;humidity
43541;DHT22;29549;40.386;-3.710;2023-06-14T00:04:35;21.30;54.30
43541;DHT22;29549;40.386;-3.710;2023-06-14T00:14:36;21.40;54.00
43541;DHT22;29549;40.386;-3.710;2023-06-14T00:24:37;21.40;54.20
43541;DHT22;29549;40.386;-3.710;2023-06-14T00:34:38;21.20;54.20
43541;DHT22;29549;40.386;-3.710;2023-06-14T00:44:38;21.40;53.30
43541;DHT22;29549;40.386;-3.710;2023-06-14T00:54:39;21.40;53.00
43541;DHT22;29549;40.386;-3.710;2023-06-14T01:04:40;21.30;53.40
43541;DHT22;29549;40.386;-3.710;2023-06-14T01:14:46;21.30;53.50
43541;DHT22;29549;40.386;-3.710;2023-06-14T01:24:48;21.40;51.30
43541;DHT22;29549;40.386;-3.710;2023-06-14T01:34:49;21.20;51.60
43541;DHT22;29549;40.386;-3.710;2023-06-14T01:44:50;21.10;52.20
43541;DHT22;29549;40.386;-3.710;2023-06-14T01:54:51;21.10;52.60
43541;DHT22;29549;40.386;-3.710;2023-06-14T02:04:52;21.00;53.70
43541;DHT22;29549;40.386;-3.710;2023-06-14T02:14:52;20.80;54.40
43541;DHT22;29549;40.386;-3.710;2023-06-14T02:24:54;20.70;54.90
43541;DHT22;29549;40.386;-3.710;2023-06-14T02:34:55;20.60;55.30
43541;DHT22;29549;40.386;-3.710;2023-06-14T02:44:55;20.50;55.60
43541;DHT22;29549;40.386;-3.710;2023-06-14T02:54:56;20.40;55.30
43541;DHT22;29549;40.386;-3.710;2023-06-14T03:04:56;20.30;55.30
43541;DHT22;29549;40.386;-3.710;2023-06-14T03:15:01;20.20;55.60
43541;DHT22;29549;40.386;-3.710;2023-06-14T03:25:02;20.30;55.60
43541;DHT22;29549;40.386;-3.710;2023-06-14T03:35:04;20.40;53.80
43541;DHT22;29549;40.386;-3.710;2023-06-14T03:45:05;20.00;54.50
43541;DHT22;29549;40.386;-3.710;2023-06-14T03:55:06;19.90;54.60
43541;DHT22;29549;40.386;-3.710;2023-06-14T04:05:08;19.70;55.20
43541;DHT22;29549;40.386;-3.710;2023-06-14T04:15:09;19.80;55.50
43541;DHT22;29549;40.386;-3.710;2023-06-14T04:25:10;19.60;56.30
43541;DHT22;29549;40.386;-3.710;2023-06-14T04:35:10;19.50;56.80
43541;DHT22;29549;40.386;-3.710;2023-06-14T04:45:13;19.50;56.70
43541;DHT22;29549;40.386;-3.710;2023-06-14T04:55:15;19.40;56.80
43541;DHT22;29549;40.386;-3.710;2023-06-14T05:05:17;19.40;57.20
43541;DHT22;29549;40.386;-3.710;2023-06-14T05:15:17;19.20;57.50
43541;DHT22;29549;40.386;-3.710;2023-06-14T05:25:19;19.30;57.60
43541;DHT22;29549;40.386;-3.710;2023-06-14T05:35:20;19.40;57.90
43541;DHT22;29549;40.386;-3.710;2023-06-14T05:45:22;19.50;57.80
43541;DHT22;29549;40.386;-3.710;2023-06-14T05:55:23;19.40;58.50
43541;DHT22;29549;40.386;-3.710;2023-06-14T06:05:23;19.40;59.20
43541;DHT22;29549;40.386;-3.710;2023-06-14T06:15:24;19.40;59.30
43541;DHT22;29549;40.386;-3.710;2023-06-14T06:25:25;19.30;59.20
43541;DHT22;29549;40.386;-3.710;2023-06-14T06:35:26;19.50;58.80
43541;DHT22;29549;40.386;-3.710;2023-06-14T06:45:26;19.70;57.80
43541;DHT22;29549;40.386;-3.710;2023-06-14T06:55:27;19.90;56.90
43541;DHT22;29549;40.386;-3.710;2023-06-14T07:05:28;20.60;55.40
43541;DHT22;29549;40.386;-3.710;2023-06-14T07:15:28;21.50;52.20
43541;DHT22;29549;40.386;-3.710;2023-06-14T07:25:29;22.40;49.80
43541;DHT22;29549;40.386;-3.710;2023-06-14T07:35:30;22.90;47.70
43541;DHT22;29549;40.386;-3.710;2023-06-14T07:45:30;23.40;46.10
43541;DHT22;29549;40.386;-3.710;2023-06-14T07:55:31;23.60;45.70
43541;DHT22;29549;40.386;-3.710;2023-06-14T08:05:33;24.00;45.60
43541;DHT22;29549;40.386;-3.710;2023-06-14T08:15:33;24.30;44.50
43541;DHT22;29549;40.386;-3.710;2023-06-14T08:25:34;24.40;42.70
43541;DHT22;29549;40.386;-3.710;2023-06-14T08:35:35;24.60;42.80
43541;DHT22;29549;40.386;-3.710;2023-06-14T08:45:39;24.70;42.60
43541;DHT22;29549;40.386;-3.710;2023-06-14T08:55:40;25.10;42.40
43541;DHT22;29549;40.386;-3.710;2023-06-14T09:05:41;25.40;41.60
43541;DHT22;29549;40.386;-3.710;2023-06-14T09:15:42;25.50;41.50
43541;DHT22;29549;40.386;-3.710;2023-06-14T09:25:43;25.60;41.70
43541;DHT22;29549;40.386;-3.710;2023-06-14T09:35:50;25.80;42.00
43541;DHT22;29549;40.386;-3.710;2023-06-14T09:45:51;26.00;41.40
43541;DHT22;29549;40.386;-3.710;2023-06-14T09:55:51;25.80;42.20
43541;DHT22;29549;40.386;-3.710;2023-06-14T10:05:52;25.70;42.10
43541;DHT22;29549;40.386;-3.710;2023-06-14T10:15:57;25.50;41.70
43541;DHT22;29549;40.386;-3.710;2023-06-14T10:25:59;25.70;41.60
43541;DHT22;29549;40.386;-3.710;2023-06-14T10:36:34;25.90;41.60
43541;DHT22;29549;40.386;-3.710;2023-06-14T10:46:36;25.90;42.00
43541;DHT22;29549;40.386;-3.710;2023-06-14T10:56:37;25.90;41.30
43541;DHT22;29549;40.386;-3.710;2023-06-14T11:06:47;26.10;40.50
43541;DHT22;29549;40.386;-3.710;2023-06-14T11:16:49;25.90;40.90
43541;DHT22;29549;40.386;-3.710;2023-06-14T11:26:50;26.20;40.00
43541;DHT22;29549;40.386;-3.710;2023-06-14T11:36:50;26.30;39.20
43541;DHT22;29549;40.386;-3.710;2023-06-14T11:46:51;26.60;39.60
43541;DHT22;29549;40.386;-3.710;2023-06-14T11:56:52;26.60;39.20
43541;DHT22;29549;40.386;-3.710;2023-06-14T12:06:52;26.60;39.10
43541;DHT22;29549;40.386;-3.710;2023-06-14T12:17:03;26.80;38.70
43541;DHT22;29549;40.386;-3.710;2023-06-14T12:27:04;26.90;38.40
43541;DHT22;29549;40.386;-3.710;2023-06-14T12:37:05;26.90;38.10
43541;DHT22;29549;40.386;-3.710;2023-06-14T12:47:07;27.00;38.10
43541;DHT22;29549;40.386;-3.710;2023-06-14T12:57:08;27.20;38.30
43541;DHT22;29549;40.386;-3.710;2023-06-14T13:07:08;27.40;37.20
43541;DHT22;29549;40.386;-3.710;2023-06-14T13:17:10;27.10;37.30
43541;DHT22;29549;40.386;-3.710;2023-06-14T13:27:11;27.20;37.40
43541;DHT22;29549;40.386;-3.710;2023-06-14T13:37:14;27.60;36.70
43541;DHT22;29549;40.386;-3.710;2023-06-14T13:47:15;27.80;36.60
43541;DHT22;29549;40.386;-3.710;2023-06-14T13:57:16;27.90;36.40
43541;DHT22;29549;40.386;-3.710;2023-06-14T14:07:16;27.90;36.40
43541;DHT22;29549;40.386;-3.710;2023-06-14T14:17:17;27.70;36.80
43541;DHT22;29549;40.386;-3.710;2023-06-14T14:27:18;27.70;36.60
43541;DHT22;29549;40.386;-3.710;2023-06-14T14:37:18;27.60;37.10
43541;DHT22;29549;40.386;-3.710;2023-06-14T14:47:19;27.80;36.60
43541;DHT22;29549;40.386;-3.710;2023-06-14T14:57:20;28.00;36.90
43541;DHT22;29549;40.386;-3.710;2023-06-14T15:07:20;28.30;36.30
43541;DHT22;29549;40.386;-3.710;2023-06-14T15:17:21;28.40;36.20
43541;DHT22;29549;40.386;-3.710;2023-06-14T15:27:22;28.40;36.30
43541;DHT22;29549;40.386;-3.710;2023-06-14T15:37:22;28.10;36.20
43541;DHT22;29549;40.386;-3.710;2023-06-14T15:47:23;28.00;36.20
43541;DHT22;29549;40.386;-3.710;2023-06-14T15:57:24;27.90;36.40
43541;DHT22;29549;40.386;-3.710;2023-06-14T16:07:24;27.70;36.80
43541;DHT22;29549;40.386;-3.710;2023-06-14T16:17:25;27.60;37.60
43541;DHT22;29549;40.386;-3.710;2023-06-14T16:27:26;27.60;37.40
43541;DHT22;29549;40.386;-3.710;2023-06-14T16:37:27;27.40;37.70
43541;DHT22;29549;40.386;-3.710;2023-06-14T16:47:27;27.30;37.80
43541;DHT22;29549;40.386;-3.710;2023-06-14T16:57:28;27.30;37.90
43541;DHT22;29549;40.386;-3.710;2023-06-14T17:07:29;27.20;37.70
43541;DHT22;29549;40.386;-3.710;2023-06-14T17:17:29;27.20;38.10
43541;DHT22;29549;40.386;-3.710;2023-06-14T17:27:30;27.30;37.90
43541;DHT22;29549;40.386;-3.710;2023-06-14T17:37:30;27.20;37.90
43541;DHT22;29549;40.386;-3.710;2023-06-14T17:47:31;27.30;38.00
43541;DHT22;29549;40.386;-3.710;2023-06-14T17:57:32;27.40;37.70
43541;DHT22;29549;40.386;-3.710;2023-06-14T18:07:32;27.20;38.00
43541;DHT22;29549;40.386;-3.710;2023-06-14T18:17:33;27.20;38.30
43541;DHT22;29549;40.386;-3.710;2023-06-14T18:27:33;27.30;38.20
43541;DHT22;29549;40.386;-3.710;2023-06-14T18:37:34;27.30;38.20
43541;DHT22;29549;40.386;-3.710;2023-06-14T18:47:35;27.20;38.40
43541;DHT22;29549;40.386;-3.710;2023-06-14T18:57:35;27.10;38.50
43541;DHT22;29549;40.386;-3.710;2023-06-14T19:07:36;27.10;38.20
43541;DHT22;29549;40.386;-3.710;2023-06-14T19:17:36;27.00;38.80
43541;DHT22;29549;40.386;-3.710;2023-06-14T19:27:37;26.90;39.60
43541;DHT22;29549;40.386;-3.710;2023-06-14T19:37:38;26.70;39.50
43541;DHT22;29549;40.386;-3.710;2023-06-14T19:47:38;26.60;39.80
43541;DHT22;29549;40.386;-3.710;2023-06-14T19:57:39;26.40;40.50
43541;DHT22;29549;40.386;-3.710;2023-06-14T20:07:40;26.30;40.90
43541;DHT22;29549;40.386;-3.710;2023-06-14T20:17:41;26.30;39.10
43541;DHT22;29549;40.386;-3.710;2023-06-14T20:27:41;26.30;37.60
43541;DHT22;29549;40.386;-3.710;2023-06-14T20:37:42;26.10;38.00
43541;DHT22;29549;40.386;-3.710;2023-06-14T20:47:43;26.10;37.40
43541;DHT22;29549;40.386;-3.710;2023-06-14T20:57:44;25.80;37.50
43541;DHT22;29549;40.386;-3.710;2023-06-14T21:07:44;25.80;37.30
43541;DHT22;29549;40.386;-3.710;2023-06-14T21:17:45;25.60;37.90
43541;DHT22;29549;40.386;-3.710;2023-06-14T21:27:46;25.50;38.20
43541;DHT22;29549;40.386;-3.710;2023-06-14T21:37:47;25.40;38.70
43541;DHT22;29549;40.386;-3.710;2023-06-14T21:47:47;25.40;38.70
43541;DHT22;29549;40.386;-3.710;2023-06-14T21:57:50;25.20;38.80
43541;DHT22;29549;40.386;-3.710;2023-06-14T22:07:50;25.00;39.80
43541;DHT22;29549;40.386;-3.710;2023-06-14T22:17:51;24.70;40.80
43541;DHT22;29549;40.386;-3.710;2023-06-14T22:27:52;24.50;41.80
43541;DHT22;29549;40.386;-3.710;2023-06-14T22:37:53;24.30;42.60
43541;DHT22;29549;40.386;-3.710;2023-06-14T22:47:54;24.10;43.20
43541;DHT22;29549;40.386;-3.710;2023-06-14T22:57:54;23.90;44.00
43541;DHT22;29549;40.386;-3.710;2023-06-14T23:07:55;23.80;44.50
43541;DHT22;29549;40.386;-3.710;2023-06-14T23:17:56;23.60;45.70
43541;DHT22;29549;40.386;-3.710;2023-06-14T23:27:57;23.30;47.20
43541;DHT22;29549;40.386;-3.710;2023-06-14T23:37:58;23.20;48.70
43541;DHT22;29549;40.386;-3.710;2023-06-14T23:48:00;23.00;49.60
43541;DHT22;29549;40.386;-3.710;2023-06-14T23:58:01;22.90;50.30
